Time;durP1;ratioP1;P1;durP2;ratioP2;P2;SDS_P1;SDS_P2;PMS_P1;PMS_P2;Temp;Humidity;BMP_temperature;BMP_pressure;BME280_temperature;BME280_humidity;BME280_pressure;Samples;Min_cycle;Max_cycle;Signal;HPM_P1;HPM_P2
2021/12/25 00:01:51;;;;;;;3.97;3.63;;;;;;;;;;5006800;28;20205;-58
2021/12/25 00:04:18;;;;;;;3.63;2.90;;;;;;;;;;5006145;28;20216;-58
2021/12/25 00:06:45;;;;;;;3.10;2.80;;;;;;;;;;5006795;28;20707;-58
2021/12/25 00:09:14;;;;;;;3.33;3.03;;;;;;;;;;5006831;28;20945;-59
2021/12/25 00:11:41;;;;;;;4.70;3.50;;;;;;;;;;5007406;28;20216;-59
2021/12/25 00:14:12;;;;;;;3.80;2.80;;;;;;;;;;5006938;28;20240;-58
2021/12/25 00:16:39;;;;;;;3.33;3.03;;;;;;;;;;5003472;28;20209;-58
2021/12/25 00:19:07;;;;;;;3.97;3.53;;;;;;;;;;5007128;28;20722;-59
2021/12/25 00:21:34;;;;;;;5.00;3.30;;;;;;;;;;5007162;28;20739;-59
2021/12/25 00:24:01;;;;;;;3.43;3.10;;;;;;;;;;5007251;28;20210;-59
2021/12/25 00:26:43;;;;;;;5.20;3.23;;;;;;;;;;5006871;28;20239;-59
2021/12/25 00:32:08;;;;;;;6.90;3.33;;;;;;;;;;4987827;28;20212;-59
2021/12/25 00:34:35;;;;;;;3.93;3.40;;;;;;;;;;5005211;28;20272;-59
2021/12/25 00:37:02;;;;;;;3.37;3.03;;;;;;;;;;5007159;28;20216;-58
2021/12/25 00:39:29;;;;;;;3.60;3.30;;;;;;;;;;5007144;28;20288;-58
2021/12/25 00:41:58;;;;;;;6.07;3.47;;;;;;;;;;5007118;28;20212;-58
2021/12/25 00:44:25;;;;;;;5.40;3.67;;;;;;;;;;5007041;28;20213;-59
2021/12/25 00:46:52;;;;;;;3.07;2.87;;;;;;;;;;5006742;28;20228;-58
2021/12/25 00:49:20;;;;;;;5.90;3.57;;;;;;;;;;5006622;28;20745;-58
2021/12/25 00:51:47;;;;;;;3.50;3.20;;;;;;;;;;5007024;28;20209;-58
2021/12/25 00:54:15;;;;;;;3.30;3.10;;;;;;;;;;5006326;28;20267;-58
2021/12/25 00:56:42;;;;;;;4.77;3.33;;;;;;;;;;5006502;28;20259;-59
2021/12/25 00:59:11;;;;;;;5.27;3.80;;;;;;;;;;5006325;28;20209;-58
2021/12/25 01:01:38;;;;;;;6.07;3.77;;;;;;;;;;5006853;28;20213;-58
2021/12/25 01:04:05;;;;;;;4.20;3.50;;;;;;;;;;5002629;28;20327;-58
2021/12/25 01:06:32;;;;;;;4.97;4.03;;;;;;;;;;5006026;28;20225;-58
2021/12/25 01:09:00;;;;;;;4.87;3.93;;;;;;;;;;5006402;28;20205;-58
2021/12/25 01:11:29;;;;;;;4.70;4.03;;;;;;;;;;5006052;28;20271;-58
2021/12/25 01:14:02;;;;;;;3.90;3.43;;;;;;;;;;5005968;28;20232;-58
2021/12/25 01:16:58;;;;;;;6.33;4.30;;;;;;;;;;5005942;28;20205;-58
2021/12/25 01:19:44;;;;;;;7.13;4.20;;;;;;;;;;5003642;28;20205;-60
2021/12/25 01:22:39;;;;;;;5.00;4.23;;;;;;;;;;5005365;28;20229;-58
2021/12/25 01:31:04;;;;;;;7.83;4.73;;;;;;;;;;5064859;28;20217;-59
2021/12/25 01:34:13;;;;;;;4.80;3.93;;;;;;;;;;5101621;28;20205;-60
2021/12/25 01:36:56;;;;;;;7.17;4.67;;;;;;;;;;5101816;28;20213;-59
2021/12/25 01:39:30;;;;;;;4.57;3.60;;;;;;;;;;5101291;28;20213;-58
2021/12/25 01:42:09;;;;;;;6.27;4.13;;;;;;;;;;5094144;28;20735;-59
2021/12/25 01:50:07;;;;;;;4.50;3.77;;;;;;;;;;5101417;28;20228;-59
2021/12/25 01:52:35;;;;;;;8.07;4.70;;;;;;;;;;5101755;28;20209;-59
2021/12/25 01:55:03;;;;;;;6.67;4.53;;;;;;;;;;5089745;28;21372;-59
2021/12/25 01:57:31;;;;;;;6.70;4.27;;;;;;;;;;5081059;28;20210;-59
2021/12/25 02:00:00;;;;;;;8.47;4.90;;;;;;;;;;5081433;28;20206;-59
2021/12/25 02:02:27;;;;;;;4.90;3.83;;;;;;;;;;5081573;28;20233;-59
2021/12/25 02:04:55;;;;;;;5.57;3.90;;;;;;;;;;5087798;28;20210;-59
2021/12/25 02:07:22;;;;;;;4.73;4.17;;;;;;;;;;5101807;28;20229;-59
2021/12/25 02:09:49;;;;;;;6.17;4.10;;;;;;;;;;5085885;28;20207;-59
2021/12/25 02:12:17;;;;;;;5.13;3.97;;;;;;;;;;5081113;28;20217;-59
2021/12/25 02:14:46;;;;;;;6.73;4.03;;;;;;;;;;5091744;28;20676;-59
2021/12/25 02:17:21;;;;;;;8.23;4.90;;;;;;;;;;5081322;28;20290;-59
2021/12/25 02:20:08;;;;;;;6.93;4.17;;;;;;;;;;5081371;28;20222;-57
2021/12/25 02:22:35;;;;;;;5.10;3.43;;;;;;;;;;5080135;28;20211;-57
2021/12/25 02:25:02;;;;;;;4.37;3.70;;;;;;;;;;5063973;28;20222;-57
2021/12/25 02:27:29;;;;;;;5.47;4.07;;;;;;;;;;5083311;28;20241;-57
2021/12/25 02:29:56;;;;;;;7.47;4.67;;;;;;;;;;5085111;28;20747;-57
2021/12/25 02:32:23;;;;;;;6.43;4.50;;;;;;;;;;5081377;28;20202;-60
2021/12/25 02:34:52;;;;;;;4.23;3.33;;;;;;;;;;5085342;28;20210;-58
2021/12/25 02:37:19;;;;;;;5.83;4.27;;;;;;;;;;5080356;28;20203;-57
2021/12/25 02:39:46;;;;;;;4.90;3.90;;;;;;;;;;5070812;28;20210;-58
2021/12/25 02:42:14;;;;;;;5.00;4.20;;;;;;;;;;5068957;28;20222;-57
2021/12/25 02:44:41;;;;;;;5.33;4.30;;;;;;;;;;5070487;28;20277;-57
2021/12/25 02:47:16;;;;;;;8.40;4.67;;;;;;;;;;5065113;28;20227;-57
2021/12/25 02:49:47;;;;;;;7.53;4.33;;;;;;;;;;5068835;28;20237;-58
2021/12/25 02:52:15;;;;;;;5.07;4.37;;;;;;;;;;5065020;28;20203;-57
2021/12/25 02:54:43;;;;;;;8.30;4.97;;;;;;;;;;5065479;28;20209;-57
2021/12/25 02:57:10;;;;;;;6.40;3.70;;;;;;;;;;5070713;28;20191;-57
2021/12/25 02:59:37;;;;;;;8.80;4.80;;;;;;;;;;5070176;28;20226;-60
2021/12/25 03:02:05;;;;;;;5.03;4.23;;;;;;;;;;5067450;28;20211;-58
2021/12/25 03:04:32;;;;;;;6.40;4.43;;;;;;;;;;5070353;28;20203;-58
2021/12/25 03:06:59;;;;;;;7.80;4.63;;;;;;;;;;5069961;28;20712;-57
2021/12/25 03:09:28;;;;;;;6.77;4.13;;;;;;;;;;5070117;28;20203;-57
2021/12/25 03:11:55;;;;;;;4.80;3.87;;;;;;;;;;5068053;28;20218;-58
2021/12/25 03:14:33;;;;;;;8.20;4.83;;;;;;;;;;5069929;28;20203;-58
2021/12/25 03:17:00;;;;;;;8.60;4.93;;;;;;;;;;5069791;28;20218;-58
2021/12/25 03:19:31;;;;;;;7.63;5.03;;;;;;;;;;5070278;28;20237;-58
2021/12/25 03:21:59;;;;;;;7.23;5.23;;;;;;;;;;5070556;28;20241;-58
2021/12/25 03:24:27;;;;;;;10.23;4.67;;;;;;;;;;5070466;28;20230;-58
2021/12/25 03:26:56;;;;;;;8.03;5.33;;;;;;;;;;5070050;28;20226;-58
2021/12/25 03:29:23;;;;;;;10.37;5.40;;;;;;;;;;5068586;28;20199;-58
2021/12/25 03:31:50;;;;;;;6.83;4.30;;;;;;;;;;5069985;28;20215;-58
2021/12/25 03:34:18;;;;;;;7.00;4.53;;;;;;;;;;5070325;28;20225;-58
2021/12/25 03:36:45;;;;;;;6.43;4.07;;;;;;;;;;5070119;28;20191;-58
2021/12/25 03:39:12;;;;;;;7.60;4.43;;;;;;;;;;5069753;28;20691;-59
2021/12/25 03:41:41;;;;;;;8.43;5.00;;;;;;;;;;5070255;28;20199;-59
2021/12/25 03:44:08;;;;;;;6.87;4.50;;;;;;;;;;5070220;28;20218;-60
2021/12/25 03:46:37;;;;;;;6.40;4.27;;;;;;;;;;5069848;28;20648;-59
2021/12/25 03:49:09;;;;;;;6.33;3.27;;;;;;;;;;5069411;28;20207;-59
2021/12/25 04:00:00;;;;;;;5.93;4.43;;;;;;;;;;5069691;28;20206;-59
2021/12/25 04:02:34;;;;;;;7.83;4.97;;;;;;;;;;5068588;28;20940;-59
2021/12/25 04:05:02;;;;;;;5.63;4.23;;;;;;;;;;5068781;28;20234;-59
2021/12/25 04:07:54;;;;;;;5.57;4.30;;;;;;;;;;5069624;28;20234;-59
2021/12/25 04:10:21;;;;;;;6.10;4.03;;;;;;;;;;5069732;28;20230;-59
2021/12/25 04:12:50;;;;;;;6.70;4.53;;;;;;;;;;5069654;28;20712;-59
2021/12/25 04:15:17;;;;;;;7.37;4.43;;;;;;;;;;5068836;28;20202;-59
2021/12/25 04:17:44;;;;;;;7.27;4.30;;;;;;;;;;5069406;28;20203;-59
2021/12/25 04:20:11;;;;;;;6.70;4.37;;;;;;;;;;5069575;28;20231;-58
2021/12/25 04:22:44;;;;;;;7.73;4.33;;;;;;;;;;5069491;28;20219;-59
2021/12/25 04:25:12;;;;;;;4.53;3.93;;;;;;;;;;5069288;28;20673;-59
2021/12/25 04:27:39;;;;;;;5.03;3.93;;;;;;;;;;5069119;28;20345;-59
2021/12/25 04:30:23;;;;;;;4.17;3.43;;;;;;;;;;5068884;28;20215;-59
2021/12/25 04:33:27;;;;;;;4.57;3.70;;;;;;;;;;5049507;28;20253;-59
2021/12/25 05:03:40;;;;;;;3.63;3.20;;;;;;;;;;5068642;28;20210;-59
2021/12/25 05:06:07;;;;;;;4.50;3.10;;;;;;;;;;5066800;28;20211;-59
2021/12/25 05:08:34;;;;;;;3.93;2.90;;;;;;;;;;5068142;28;20230;-59
2021/12/25 05:11:01;;;;;;;3.77;2.70;;;;;;;;;;5068185;28;20213;-59
2021/12/25 05:13:28;;;;;;;2.50;2.30;;;;;;;;;;5067928;28;20218;-59
2021/12/25 05:15:55;;;;;;;2.80;2.50;;;;;;;;;;5067923;28;20195;-59
2021/12/25 05:18:22;;;;;;;3.70;2.40;;;;;;;;;;5067582;28;20218;-59
2021/12/25 05:20:51;;;;;;;2.43;2.30;;;;;;;;;;5067894;28;20202;-59
2021/12/25 05:23:18;;;;;;;4.17;3.40;;;;;;;;;;5068167;28;20207;-59
2021/12/25 05:25:45;;;;;;;2.57;2.37;;;;;;;;;;5066682;28;20199;-59
2021/12/25 05:28:13;;;;;;;4.03;2.50;;;;;;;;;;5068003;28;20234;-58
2021/12/25 05:30:41;;;;;;;2.87;2.67;;;;;;;;;;5066954;28;20243;-59
2021/12/25 05:33:08;;;;;;;1.83;1.73;;;;;;;;;;5068127;28;20242;-59
2021/12/25 05:35:35;;;;;;;0.70;0.70;;;;;;;;;;5067075;28;20218;-59
2021/12/25 05:38:09;;;;;;;2.67;2.47;;;;;;;;;;5068540;28;20202;-59
2021/12/25 05:40:37;;;;;;;2.73;2.37;;;;;;;;;;5067902;28;20210;-59
2021/12/25 05:43:04;;;;;;;2.00;1.83;;;;;;;;;;5068462;28;20298;-59
2021/12/25 05:45:32;;;;;;;3.63;2.63;;;;;;;;;;5067981;28;20211;-59
2021/12/25 05:47:59;;;;;;;5.07;3.37;;;;;;;;;;5068164;28;20235;-59
2021/12/25 05:50:26;;;;;;;1.60;1.50;;;;;;;;;;5068221;28;20231;-59
2021/12/25 05:52:55;;;;;;;3.70;2.67;;;;;;;;;;5068079;28;20326;-59
2021/12/25 05:55:24;;;;;;;4.40;2.87;;;;;;;;;;5067668;28;20293;-59
2021/12/25 05:57:51;;;;;;;3.37;2.47;;;;;;;;;;5068207;28;20206;-59
2021/12/25 06:00:19;;;;;;;2.20;2.10;;;;;;;;;;5065716;28;20205;-59
2021/12/25 06:02:46;;;;;;;1.93;1.47;;;;;;;;;;5059537;28;20211;-59
2021/12/25 06:05:14;;;;;;;2.83;2.63;;;;;;;;;;5068119;28;20209;-59
2021/12/25 06:07:41;;;;;;;4.37;2.60;;;;;;;;;;5068209;28;20313;-59
2021/12/25 06:10:10;;;;;;;2.10;2.00;;;;;;;;;;5068067;28;20203;-58
2021/12/25 06:12:39;;;;;;;1.90;1.80;;;;;;;;;;5067876;28;20750;-58
2021/12/25 06:15:06;;;;;;;2.03;1.83;;;;;;;;;;5071712;28;20214;-58
2021/12/25 06:17:33;;;;;;;3.93;1.70;;;;;;;;;;5071631;28;20902;-59
2021/12/25 06:20:01;;;;;;;2.27;2.07;;;;;;;;;;5071738;28;20240;-59
2021/12/25 06:22:28;;;;;;;2.10;1.87;;;;;;;;;;5071432;28;20203;-59
2021/12/25 06:24:55;;;;;;;1.73;1.63;;;;;;;;;;5071511;28;20236;-58
2021/12/25 06:27:22;;;;;;;1.93;1.80;;;;;;;;;;5071063;28;20241;-59
2021/12/25 06:29:51;;;;;;;5.03;2.57;;;;;;;;;;5071393;28;20214;-59
2021/12/25 06:32:18;;;;;;;0.87;0.87;;;;;;;;;;5071159;28;20199;-59
2021/12/25 06:34:46;;;;;;;3.43;2.30;;;;;;;;;;5071554;28;20211;-58
2021/12/25 06:37:13;;;;;;;1.93;1.83;;;;;;;;;;5070912;28;20703;-57
2021/12/25 06:39:41;;;;;;;5.70;2.23;;;;;;;;;;5071299;28;20205;-59
2021/12/25 06:42:09;;;;;;;2.60;1.83;;;;;;;;;;5069620;28;20686;-60
2021/12/25 06:44:36;;;;;;;3.87;2.57;;;;;;;;;;5070246;28;20218;-59
2021/12/25 06:47:05;;;;;;;2.87;1.30;;;;;;;;;;5070088;28;20207;-60
2021/12/25 06:49:32;;;;;;;3.60;2.60;;;;;;;;;;5070752;28;20231;-59
2021/12/25 06:51:59;;;;;;;0.40;0.40;;;;;;;;;;5070275;28;20611;-59
2021/12/25 06:54:26;;;;;;;6.03;1.53;;;;;;;;;;5070753;28;20665;-59
2021/12/25 06:56:54;;;;;;;2.23;1.90;;;;;;;;;;5070702;28;20214;-59
2021/12/25 06:59:22;;;;;;;1.53;1.43;;;;;;;;;;5070778;28;20352;-59
2021/12/25 07:01:49;;;;;;;3.20;1.67;;;;;;;;;;5070386;28;20676;-60
2021/12/25 07:04:18;;;;;;;1.47;1.07;;;;;;;;;;5070958;28;20679;-60
2021/12/25 07:06:45;;;;;;;1.37;1.00;;;;;;;;;;5070477;28;20206;-59
2021/12/25 07:09:12;;;;;;;2.53;1.43;;;;;;;;;;5070026;28;20229;-60
2021/12/25 07:11:39;;;;;;;1.70;1.60;;;;;;;;;;5070334;28;20205;-60
2021/12/25 07:14:09;;;;;;;3.40;1.07;;;;;;;;;;5070544;28;20224;-59
2021/12/25 07:16:36;;;;;;;2.00;1.70;;;;;;;;;;5070826;28;20213;-59
2021/12/25 07:19:03;;;;;;;1.77;1.67;;;;;;;;;;5068447;28;21032;-60
2021/12/25 07:21:31;;;;;;;1.93;1.73;;;;;;;;;;5070303;28;20204;-60
2021/12/25 07:23:58;;;;;;;2.67;1.73;;;;;;;;;;5070500;28;20217;-60
2021/12/25 07:26:27;;;;;;;2.73;0.93;;;;;;;;;;5070253;28;20243;-60
2021/12/25 07:28:55;;;;;;;0.23;0.20;;;;;;;;;;5070260;28;20231;-60
2021/12/25 07:31:22;;;;;;;1.80;1.30;;;;;;;;;;5069894;28;20621;-60
2021/12/25 07:33:49;;;;;;;0.43;0.43;;;;;;;;;;5070406;28;20219;-60
2021/12/25 07:36:16;;;;;;;1.20;1.20;;;;;;;;;;5065080;28;20211;-59
2021/12/25 07:38:45;;;;;;;0.83;0.83;;;;;;;;;;5070477;28;20204;-59
2021/12/25 07:41:12;;;;;;;0.43;0.43;;;;;;;;;;5069970;28;20207;-59
2021/12/25 07:43:39;;;;;;;1.00;0.90;;;;;;;;;;5070144;28;20207;-59
2021/12/25 07:46:06;;;;;;;0.00;0.00;;;;;;;;;;5069711;28;20261;-59
2021/12/25 07:48:34;;;;;;;0.60;0.60;;;;;;;;;;5069988;28;20239;-59
2021/12/25 07:51:02;;;;;;;0.93;0.50;;;;;;;;;;5069455;28;20232;-59
2021/12/25 07:53:29;;;;;;;0.80;0.80;;;;;;;;;;5070032;28;20207;-59
2021/12/25 07:55:58;;;;;;;0.27;0.27;;;;;;;;;;5069146;28;20669;-59
2021/12/25 07:58:25;;;;;;;0.23;0.23;;;;;;;;;;5070127;28;20215;-58
2021/12/25 08:00:53;;;;;;;0.43;0.40;;;;;;;;;;5069215;28;20673;-59
2021/12/25 08:03:20;;;;;;;0.60;0.40;;;;;;;;;;5069924;28;20213;-59
2021/12/25 08:05:47;;;;;;;0.60;0.60;;;;;;;;;;5068889;28;20199;-58
2021/12/25 08:08:14;;;;;;;1.53;0.40;;;;;;;;;;5064250;28;20227;-59
2021/12/25 08:10:43;;;;;;;0.47;0.47;;;;;;;;;;5067411;28;20198;-58
2021/12/25 08:13:13;;;;;;;0.90;0.90;;;;;;;;;;5067990;28;20238;-59
2021/12/25 08:15:41;;;;;;;0.20;0.20;;;;;;;;;;5068063;28;20316;-60
2021/12/25 08:18:09;;;;;;;0.47;0.47;;;;;;;;;;5067982;28;20655;-59
2021/12/25 08:20:36;;;;;;;1.43;0.87;;;;;;;;;;5067559;28;20210;-59
2021/12/25 08:23:04;;;;;;;0.70;0.70;;;;;;;;;;5067371;28;20210;-59
2021/12/25 08:25:31;;;;;;;0.77;0.77;;;;;;;;;;5067137;28;20210;-59
2021/12/25 08:27:58;;;;;;;0.37;0.37;;;;;;;;;;5066863;28;20364;-61
2021/12/25 08:30:29;;;;;;;0.70;0.70;;;;;;;;;;5066148;28;20226;-58
2021/12/25 08:32:58;;;;;;;0.67;0.67;;;;;;;;;;5063216;28;20259;-58
2021/12/25 08:35:26;;;;;;;1.30;0.43;;;;;;;;;;5062924;28;20298;-59
2021/12/25 08:37:54;;;;;;;0.30;0.30;;;;;;;;;;5067988;28;20214;-60
2021/12/25 08:40:23;;;;;;;0.60;0.60;;;;;;;;;;5067686;28;20199;-59
2021/12/25 08:42:54;;;;;;;1.33;1.00;;;;;;;;;;5066200;28;20429;-59
2021/12/25 08:45:41;;;;;;;0.20;0.10;;;;;;;;;;5067746;28;20566;-59
2021/12/25 08:48:11;;;;;;;0.93;0.50;;;;;;;;;;5067147;28;20246;-60
2021/12/25 08:50:39;;;;;;;1.53;0.70;;;;;;;;;;5067560;28;20315;-59
2021/12/25 08:53:21;;;;;;;1.53;0.43;;;;;;;;;;5067473;28;20214;-59
2021/12/25 08:55:49;;;;;;;0.57;0.57;;;;;;;;;;5061279;28;20202;-64
2021/12/25 08:58:16;;;;;;;0.50;0.50;;;;;;;;;;5067450;28;20203;-58
2021/12/25 09:00:43;;;;;;;0.23;0.23;;;;;;;;;;5067830;28;20260;-59
2021/12/25 09:03:12;;;;;;;0.50;0.50;;;;;;;;;;5066731;28;20210;-59
2021/12/25 09:05:39;;;;;;;0.63;0.23;;;;;;;;;;5066827;28;20209;-58
2021/12/25 09:08:06;;;;;;;0.43;0.43;;;;;;;;;;5067725;28;20210;-65
2021/12/25 09:10:35;;;;;;;0.20;0.20;;;;;;;;;;5068198;28;20203;-61
2021/12/25 09:13:02;;;;;;;1.13;0.70;;;;;;;;;;5068212;28;20318;-60
2021/12/25 09:15:29;;;;;;;0.33;0.33;;;;;;;;;;5068665;28;20214;-60
2021/12/25 09:17:56;;;;;;;2.00;0.40;;;;;;;;;;5068074;28;20219;-60
2021/12/25 09:20:24;;;;;;;0.30;0.30;;;;;;;;;;5067953;28;20210;-61
2021/12/25 09:22:51;;;;;;;0.60;0.30;;;;;;;;;;5067058;28;20637;-61
2021/12/25 09:25:18;;;;;;;0.40;0.40;;;;;;;;;;5065600;28;20698;-62
2021/12/25 09:27:46;;;;;;;0.40;0.40;;;;;;;;;;5067890;28;20246;-62
2021/12/25 09:30:13;;;;;;;0.83;0.73;;;;;;;;;;5067946;28;20237;-61
2021/12/25 09:32:40;;;;;;;3.70;0.20;;;;;;;;;;5068228;28;20593;-63
2021/12/25 09:35:08;;;;;;;0.00;0.00;;;;;;;;;;5068151;28;20207;-61
2021/12/25 09:37:36;;;;;;;0.97;0.87;;;;;;;;;;5068013;28;20225;-58
2021/12/25 09:40:05;;;;;;;0.47;0.47;;;;;;;;;;5059870;28;20207;-60
2021/12/25 09:42:32;;;;;;;0.10;0.10;;;;;;;;;;5067600;28;20218;-60
2021/12/25 09:44:59;;;;;;;0.30;0.30;;;;;;;;;;5067308;28;20210;-60
2021/12/25 09:47:26;;;;;;;1.33;0.40;;;;;;;;;;5068397;28;20210;-60
2021/12/25 09:49:53;;;;;;;1.63;1.53;;;;;;;;;;5072218;28;20237;-59
2021/12/25 09:52:21;;;;;;;0.73;0.33;;;;;;;;;;5072296;28;20218;-59
2021/12/25 09:54:49;;;;;;;0.50;0.40;;;;;;;;;;5072218;28;20245;-59
2021/12/25 09:57:17;;;;;;;0.30;0.30;;;;;;;;;;5072423;28;20214;-64
2021/12/25 09:59:44;;;;;;;0.90;0.90;;;;;;;;;;5065728;28;20196;-59
2021/12/25 10:02:13;;;;;;;1.17;1.07;;;;;;;;;;5059879;28;20207;-60
2021/12/25 10:04:41;;;;;;;1.00;1.00;;;;;;;;;;5072287;28;20634;-59
2021/12/25 10:07:17;;;;;;;0.27;0.27;;;;;;;;;;5071444;28;20211;-60
2021/12/25 10:09:44;;;;;;;0.30;0.27;;;;;;;;;;5071591;28;20665;-59
2021/12/25 10:12:14;;;;;;;0.40;0.40;;;;;;;;;;5071993;28;20664;-60
2021/12/25 10:14:42;;;;;;;1.47;1.47;;;;;;;;;;5071983;28;20283;-59
2021/12/25 10:17:17;;;;;;;0.40;0.40;;;;;;;;;;5071694;28;20590;-60
2021/12/25 10:19:44;;;;;;;0.30;0.30;;;;;;;;;;5071949;28;20994;-59
2021/12/25 10:22:13;;;;;;;0.47;0.47;;;;;;;;;;5071501;28;20203;-64
2021/12/25 10:24:49;;;;;;;0.70;0.70;;;;;;;;;;5071781;28;20207;-58
2021/12/25 10:27:21;;;;;;;0.83;0.83;;;;;;;;;;5071664;28;20636;-63
2021/12/25 10:29:49;;;;;;;0.90;0.80;;;;;;;;;;5071597;28;20233;-64
2021/12/25 10:32:21;;;;;;;0.23;0.17;;;;;;;;;;5070431;28;20207;-64
2021/12/25 10:34:49;;;;;;;4.60;0.87;;;;;;;;;;5071403;28;20215;-65
2021/12/25 10:37:17;;;;;;;0.30;0.30;;;;;;;;;;5071128;28;20665;-63
2021/12/25 10:39:45;;;;;;;2.30;0.87;;;;;;;;;;5071345;28;20210;-62
2021/12/25 10:42:16;;;;;;;0.40;0.40;;;;;;;;;;5071699;28;20222;-62
2021/12/25 10:44:45;;;;;;;0.33;0.33;;;;;;;;;;5071386;28;20271;-63
2021/12/25 10:47:13;;;;;;;0.30;0.30;;;;;;;;;;5055117;28;20329;-63
2021/12/25 10:49:42;;;;;;;0.47;0.10;;;;;;;;;;5071119;28;20231;-62
2021/12/25 10:52:14;;;;;;;0.60;0.60;;;;;;;;;;5070689;28;20759;-62
2021/12/25 10:54:43;;;;;;;0.40;0.40;;;;;;;;;;5070921;28;20222;-61
2021/12/25 10:57:10;;;;;;;0.40;0.40;;;;;;;;;;5051271;28;20222;-60
2021/12/25 10:59:45;;;;;;;7.50;2.40;;;;;;;;;;5060909;28;20211;-62
2021/12/25 11:02:27;;;;;;;0.83;0.67;;;;;;;;;;5071045;28;20205;-61
2021/12/25 11:04:54;;;;;;;0.60;0.60;;;;;;;;;;5071092;28;20206;-60
2021/12/25 11:07:21;;;;;;;0.20;0.20;;;;;;;;;;5070673;28;20223;-60
2021/12/25 11:10:03;;;;;;;0.10;0.10;;;;;;;;;;5070844;28;20234;-61
2021/12/25 11:12:31;;;;;;;0.27;0.27;;;;;;;;;;5070880;28;20203;-60
2021/12/25 11:15:11;;;;;;;0.30;0.30;;;;;;;;;;5071391;28;20220;-61
2021/12/25 11:17:40;;;;;;;0.50;0.50;;;;;;;;;;5065093;28;20628;-60
2021/12/25 11:20:08;;;;;;;0.33;0.30;;;;;;;;;;5070264;28;20207;-60
2021/12/25 11:22:46;;;;;;;0.40;0.40;;;;;;;;;;5070365;28;20198;-63
2021/12/25 11:25:13;;;;;;;0.93;0.70;;;;;;;;;;5070795;28;20760;-59
2021/12/25 11:27:40;;;;;;;0.30;0.30;;;;;;;;;;5070208;28;20241;-60
2021/12/25 11:30:10;;;;;;;0.30;0.30;;;;;;;;;;5069856;28;20227;-61
2021/12/25 11:32:37;;;;;;;0.07;0.07;;;;;;;;;;5065225;28;20218;-60
2021/12/25 11:35:05;;;;;;;0.33;0.33;;;;;;;;;;5070188;28;20202;-61
2021/12/25 11:37:32;;;;;;;0.73;0.50;;;;;;;;;;5070177;28;20206;-60
2021/12/25 11:40:00;;;;;;;0.37;0.37;;;;;;;;;;5070493;28;20202;-63
2021/12/25 11:42:29;;;;;;;0.60;0.10;;;;;;;;;;5060194;28;20207;-60
2021/12/25 11:44:56;;;;;;;0.23;0.23;;;;;;;;;;5067570;28;20241;-59
2021/12/25 11:47:32;;;;;;;0.30;0.30;;;;;;;;;;5068015;28;20216;-60
2021/12/25 11:50:00;;;;;;;0.10;0.10;;;;;;;;;;5066693;28;20222;-59
2021/12/25 11:52:32;;;;;;;0.10;0.10;;;;;;;;;;5061143;28;20603;-59
2021/12/25 11:55:25;;;;;;;0.40;0.40;;;;;;;;;;5069985;28;20209;-59
2021/12/25 11:58:00;;;;;;;0.10;0.10;;;;;;;;;;5070167;28;20298;-61
2021/12/25 12:00:34;;;;;;;0.27;0.10;;;;;;;;;;5068037;28;20642;-59
2021/12/25 12:03:03;;;;;;;1.90;1.23;;;;;;;;;;5069892;28;20554;-58
2021/12/25 12:05:31;;;;;;;2.87;0.57;;;;;;;;;;5069648;28;20650;-59
2021/12/25 12:08:04;;;;;;;0.83;0.40;;;;;;;;;;5069606;28;20212;-59
2021/12/25 12:11:04;;;;;;;0.00;0.00;;;;;;;;;;5060884;28;20591;-59
2021/12/25 12:13:32;;;;;;;0.97;0.90;;;;;;;;;;4988043;28;20221;-59
2021/12/25 12:16:00;;;;;;;0.97;0.37;;;;;;;;;;4987958;28;20216;-59
2021/12/25 12:18:39;;;;;;;0.00;0.00;;;;;;;;;;5025443;28;20219;-60
2021/12/25 12:21:11;;;;;;;0.00;0.00;;;;;;;;;;5069332;28;20213;-58
2021/12/25 12:23:48;;;;;;;1.40;1.10;;;;;;;;;;5069134;28;20212;-60
2021/12/25 12:26:16;;;;;;;0.20;0.20;;;;;;;;;;5069362;28;20240;-60
2021/12/25 12:28:44;;;;;;;0.10;0.10;;;;;;;;;;5069635;28;20211;-59
2021/12/25 12:31:33;;;;;;;0.50;0.50;;;;;;;;;;5068981;28;20238;-59
2021/12/25 12:34:02;;;;;;;0.53;0.53;;;;;;;;;;5069173;28;20217;-60
2021/12/25 12:36:29;;;;;;;0.23;0.23;;;;;;;;;;5069039;28;20211;-57
2021/12/25 12:39:18;;;;;;;0.77;0.77;;;;;;;;;;5055405;28;20263;-58
2021/12/25 12:41:51;;;;;;;0.00;0.00;;;;;;;;;;5057664;28;20203;-58
2021/12/25 12:44:26;;;;;;;0.23;0.23;;;;;;;;;;5067455;28;20212;-59
2021/12/25 12:47:11;;;;;;;0.57;0.57;;;;;;;;;;5061410;28;20215;-60
2021/12/25 12:49:59;;;;;;;0.63;0.23;;;;;;;;;;5055502;28;20697;-60
2021/12/25 12:52:28;;;;;;;0.83;0.50;;;;;;;;;;5067169;28;20211;-60
2021/12/25 12:54:56;;;;;;;0.63;0.53;;;;;;;;;;5065220;28;20647;-62
2021/12/25 12:57:26;;;;;;;0.30;0.30;;;;;;;;;;5054024;28;20226;-59
2021/12/25 12:59:55;;;;;;;1.07;1.07;;;;;;;;;;5068385;28;20228;-60
2021/12/25 13:02:23;;;;;;;0.80;0.50;;;;;;;;;;5068224;28;20257;-58
2021/12/25 13:04:51;;;;;;;0.70;0.70;;;;;;;;;;5067611;28;20722;-58
2021/12/25 13:07:22;;;;;;;1.27;1.27;;;;;;;;;;5066664;28;20215;-58
2021/12/25 13:09:57;;;;;;;0.37;0.37;;;;;;;;;;5075497;28;20226;-64
2021/12/25 13:12:40;;;;;;;6.77;2.97;;;;;;;;;;5067201;28;20212;-61
2021/12/25 13:15:11;;;;;;;0.30;0.30;;;;;;;;;;5067932;28;20214;-60
2021/12/25 13:17:38;;;;;;;1.17;1.07;;;;;;;;;;5067953;28;20588;-59
2021/12/25 13:20:07;;;;;;;0.47;0.47;;;;;;;;;;5075937;28;20198;-60
2021/12/25 13:22:35;;;;;;;0.63;0.63;;;;;;;;;;5084239;28;20788;-59
2021/12/25 13:25:07;;;;;;;0.50;0.50;;;;;;;;;;5067827;28;20214;-62
2021/12/25 13:27:34;;;;;;;0.40;0.40;;;;;;;;;;5067407;28;20234;-60
2021/12/25 13:30:17;;;;;;;0.40;0.40;;;;;;;;;;5075596;28;20226;-61
2021/12/25 13:32:44;;;;;;;0.57;0.50;;;;;;;;;;5075633;28;20295;-61
2021/12/25 13:35:15;;;;;;;0.20;0.20;;;;;;;;;;5084849;28;20206;-61
2021/12/25 13:37:44;;;;;;;0.00;0.00;;;;;;;;;;5067930;28;20210;-59
2021/12/25 13:40:14;;;;;;;0.30;0.30;;;;;;;;;;5074497;28;20668;-59
2021/12/25 13:42:41;;;;;;;0.53;0.53;;;;;;;;;;5074428;28;20206;-59
2021/12/25 13:45:08;;;;;;;0.10;0.10;;;;;;;;;;5075289;28;20202;-59
2021/12/25 13:47:38;;;;;;;0.03;0.03;;;;;;;;;;5069314;28;20237;-60
2021/12/25 13:50:06;;;;;;;1.07;0.53;;;;;;;;;;5076179;28;20646;-60
2021/12/25 13:52:34;;;;;;;0.00;0.00;;;;;;;;;;5048242;28;20237;-61
2021/12/25 13:55:07;;;;;;;1.13;1.03;;;;;;;;;;5048922;28;20216;-60
2021/12/25 13:57:37;;;;;;;0.30;0.30;;;;;;;;;;5068401;28;20614;-60
2021/12/25 14:00:07;;;;;;;0.20;0.20;;;;;;;;;;5074593;28;20306;-61
2021/12/25 14:02:34;;;;;;;0.10;0.10;;;;;;;;;;5088098;28;20208;-58
2021/12/25 14:05:03;;;;;;;0.07;0.07;;;;;;;;;;5073847;28;20204;-59
2021/12/25 14:07:30;;;;;;;0.30;0.30;;;;;;;;;;5068153;28;20258;-63
2021/12/25 14:09:58;;;;;;;0.77;0.77;;;;;;;;;;5069159;28;20223;-61
2021/12/25 14:12:27;;;;;;;0.60;0.60;;;;;;;;;;5067846;28;20207;-60
2021/12/25 14:14:55;;;;;;;0.20;0.20;;;;;;;;;;5074188;28;20658;-61
2021/12/25 14:17:23;;;;;;;1.23;1.23;;;;;;;;;;5067667;28;20204;-69
2021/12/25 14:19:50;;;;;;;0.73;0.60;;;;;;;;;;5067751;28;20211;-60
2021/12/25 14:22:20;;;;;;;2.10;0.93;;;;;;;;;;5067152;28;20203;-59
2021/12/25 14:24:48;;;;;;;0.20;0.20;;;;;;;;;;5068218;28;20240;-59
2021/12/25 14:27:16;;;;;;;0.50;0.23;;;;;;;;;;5063762;28;20238;-59
2021/12/25 14:29:45;;;;;;;0.50;0.40;;;;;;;;;;5063011;28;20202;-59
2021/12/25 14:32:20;;;;;;;0.57;0.57;;;;;;;;;;5088452;28;20257;-59
2021/12/25 14:34:47;;;;;;;0.00;0.00;;;;;;;;;;5089860;28;20577;-59
2021/12/25 14:37:14;;;;;;;1.40;0.53;;;;;;;;;;5071293;28;20673;-60
2021/12/25 14:39:41;;;;;;;0.73;0.73;;;;;;;;;;5074743;28;20195;-62
2021/12/25 14:42:08;;;;;;;1.57;0.60;;;;;;;;;;5078446;28;20631;-61
2021/12/25 14:44:36;;;;;;;0.23;0.23;;;;;;;;;;5076443;28;20203;-62
2021/12/25 14:47:08;;;;;;;0.50;0.50;;;;;;;;;;5070891;28;20250;-63
2021/12/25 14:49:36;;;;;;;0.70;0.70;;;;;;;;;;5073296;28;20222;-63
2021/12/25 14:52:04;;;;;;;0.50;0.50;;;;;;;;;;5070627;28;20210;-62
2021/12/25 14:54:32;;;;;;;0.30;0.30;;;;;;;;;;5074107;28;20202;-65
2021/12/25 14:56:59;;;;;;;0.73;0.30;;;;;;;;;;5051333;28;20245;-62
2021/12/25 14:59:27;;;;;;;0.10;0.10;;;;;;;;;;5059045;28;20298;-63
2021/12/25 15:01:56;;;;;;;1.10;0.70;;;;;;;;;;5069722;28;20203;-69
2021/12/25 15:04:27;;;;;;;107.53;49.63;;;;;;;;;;5070783;28;20203;-64
2021/12/25 15:06:55;;;;;;;0.80;0.80;;;;;;;;;;5079475;28;20215;-62
2021/12/25 15:09:23;;;;;;;0.93;0.37;;;;;;;;;;5070869;28;20210;-67
2021/12/25 15:11:51;;;;;;;0.60;0.60;;;;;;;;;;5070857;28;20324;-67
2021/12/25 15:14:20;;;;;;;0.77;0.30;;;;;;;;;;5071879;28;20211;-66
2021/12/25 15:16:49;;;;;;;0.60;0.60;;;;;;;;;;5050795;28;20700;-65
2021/12/25 15:19:25;;;;;;;0.80;0.80;;;;;;;;;;5055246;28;20294;-67
2021/12/25 15:21:52;;;;;;;0.83;0.60;;;;;;;;;;5069286;28;20225;-68
2021/12/25 15:24:21;;;;;;;0.63;0.63;;;;;;;;;;5074531;28;20774;-67
2021/12/25 15:26:50;;;;;;;0.57;0.57;;;;;;;;;;5090742;28;20238;-69
2021/12/25 15:29:17;;;;;;;0.70;0.70;;;;;;;;;;5084445;28;20205;-64
2021/12/25 15:31:44;;;;;;;0.80;0.80;;;;;;;;;;5070791;28;20234;-65
2021/12/25 15:34:13;;;;;;;0.50;0.50;;;;;;;;;;5074197;28;20252;-64
2021/12/25 15:36:45;;;;;;;0.63;0.27;;;;;;;;;;5070059;28;20205;-65
2021/12/25 15:39:14;;;;;;;0.40;0.40;;;;;;;;;;5069076;28;20215;-65
2021/12/25 15:41:42;;;;;;;6.20;1.33;;;;;;;;;;5070244;28;20210;-62
2021/12/25 15:44:09;;;;;;;1.40;1.30;;;;;;;;;;5070389;28;20215;-65
2021/12/25 15:46:36;;;;;;;1.20;1.07;;;;;;;;;;5069879;28;20265;-71
2021/12/25 15:49:03;;;;;;;1.13;1.13;;;;;;;;;;5069980;28;20268;-68